Flight Track Log - Related Links

Times and Time Zones

All times are in EDT time to prevent confusion due to time zone crossing. See the FLG4057 flight status page for this flight to view local times or setup timezone preferences in your user account.

Time Position Orientation Groundspeed Altitude Reporting Facility
EDT Latitude Longitude Course Direction KTS MPH feet Rate Location/Type
Sun 05:49:28 PM 42.1892 -85.4839 106° East 193 222 4,000  Level Chicago Center
Sun 05:50:30 PM 42.1742 -85.3956 103° East 228 262 6,100 2,500 Climbing Chicago Center
Sun 05:51:00 PM 42.1632 -85.2639 106° East  Level FlightAware Approximate
Sun 05:51:28 PM 42.1575 -85.2897 102° East 263 303 9,000  Level Cleveland Center
Sun 05:52:00 PM 42.1474 -85.1913 106° East  Level FlightAware Approximate
Sun 05:52:28 PM 42.1369 -85.1761 104° East 288 331 10,600  Level Cleveland Center
Sun 05:53:00 PM 42.1315 -85.1187 106° East  Level FlightAware Approximate
Sun 05:53:28 PM 42.1131 -85.0428 104° East 327 376 11,600  Level Cleveland Center
Sun 05:54:00 PM 42.1156 -85.0461 106° East  Level FlightAware Approximate
Sun 05:54:28 PM 42.0931 -84.9125 102° East 355 409 12,100  Level Cleveland Center
Sun 05:55:28 PM 42.0683 -84.7906 105° East 348 400 12,100  Level Cleveland Center
Sun 05:56:28 PM 42.0200 -84.6839 121° Southeast 336 387 12,100  Level Cleveland Center
Sun 05:57:28 PM 41.9497 -84.6067 141° Southeast 323 372 12,100  Level Cleveland Center
Sun 05:58:28 PM 41.8769 -84.5408 146° Southeast 323 372 12,100  Level Cleveland Center
Sun 05:59:28 PM 41.8022 -84.4719 145° Southeast 323 372 12,100  Level Cleveland Center
Sun 06:00:28 PM 41.7358 -84.4014 142° Southeast 318 366 12,100  Level Cleveland Center
Sun 06:01:02 PM 41.7422 -84.3292 83° East 309 356 12,100  Level Cleveland Center
Sun 06:01:27 PM 41.7522 -84.2853 73° East 305 351 12,100  Level Cleveland Center
Sun 06:02:34 PM 41.7914 -84.1622 67° East 312 359 12,100  Level Cleveland Center
Sun 06:03:28 PM 41.8175 -84.0661 70° East 283 326 12,100  Level Cleveland Center
Sun 06:04:28 PM 41.8764 -83.9800 47° Northeast 300 345 12,100  Level Cleveland Center
Sun 06:05:28 PM 41.9475 -83.9000 40° Northeast 312 359 12,100  Level Cleveland Center
Sun 06:06:28 PM 42.0186 -83.8200 40° Northeast 318 366 12,100 -50 Level Cleveland Center
Sun 06:07:28 PM 42.0769 -83.7389 46° Northeast 314 361 12,000  Descending Cleveland Center
Sun 06:08:28 PM 42.1206 -83.6683 50° Northeast 275 316 12,100  Climbing Cleveland Center
Sun 06:09:03 PM 42.1492 -83.6244 49° Northeast 249 287 12,000 -109 Descending FAA TRACON SMA TRACON (SMA)
Sun 06:09:23 PM 42.1631 -83.6022 50° Northeast 250 288 12,000  Level FAA TRACON SMA TRACON (SMA)
Sun 06:09:43 PM 42.1800 -83.5742 51° Northeast 252 290 12,000  Level FAA TRACON SMA TRACON (SMA)
Sun 06:10:03 PM 42.1931 -83.5522 51° Northeast 251 289 12,000 -492 Level FAA TRACON SMA TRACON (SMA)
Sun 06:10:44 PM 42.2314 -83.5167 34° Northeast 227 261 11,500 -1,000 Descending FAA TRACON SMA TRACON (SMA)
Sun 06:11:03 PM 42.2511 -83.5069 20° North 244 281 11,000 -1,385 Descending FAA TRACON SMA TRACON (SMA)
Sun 06:11:23 PM 42.2708 -83.4972 20° North 243 280 10,600 -1,350 Descending FAA TRACON SMA TRACON (SMA)
Sun 06:11:43 PM 42.2944 -83.4878 16° North 237 273 10,100 -1,610 Descending FAA TRACON SMA TRACON (SMA)
Sun 06:12:04 PM 42.3131 -83.4761 25° Northeast 235 270 9,500 -1,902 Descending FAA TRACON SMA TRACON (SMA)
Sun 06:12:24 PM 42.3314 -83.4672 20° North 234 269 8,800 -2,400 Descending FAA TRACON SMA TRACON (SMA)
Sun 06:12:44 PM 42.3550 -83.4553 20° North 231 266 7,900 -2,233 Descending FAA TRACON SMA TRACON (SMA)
Sun 06:13:07 PM 42.3736 -83.4467 19° North 231 266 7,200 -2,233 Descending FAA TRACON SMA TRACON (SMA)
Sun 06:13:27 PM 42.3972 -83.4358 19° North 234 269 6,300 -2,333 Descending FAA TRACON SMA TRACON (SMA)
Sun 06:13:43 PM 42.4164 -83.4286 16° North 232 267 5,800 -2,000 Descending FAA TRACON SMA TRACON (SMA)
Sun 06:14:03 PM 42.4353 -83.4211 16° North 229 264 5,100 -1,800 Descending FAA TRACON SMA TRACON (SMA)
Sun 06:14:23 PM 42.4461 -83.4014 53° Northeast 204 235 4,600 -1,500 Descending FAA TRACON SMA TRACON (SMA)
Sun 06:14:43 PM 42.4436 -83.3719 97° East 211 243 4,100 -900 Descending FAA TRACON SMA TRACON (SMA)
Sun 06:15:03 PM 42.4383 -83.3486 107° East 214 246 4,000 -146 Descending FAA TRACON SMA TRACON (SMA)
Sun 06:15:24 PM 42.4331 -83.3250 107° East 215 247 4,000  Level FAA TRACON SMA TRACON (SMA)
Sun 06:15:43 PM 42.4244 -83.2975 113° Southeast 208 239 4,000  Level FAA TRACON SMA TRACON (SMA)
Sun 06:16:04 PM 42.4081 -83.2883 158° South 211 243 4,000 -300 Level FAA TRACON SMA TRACON (SMA)
Sun 06:16:23 PM 42.3875 -83.2878 179° South 197 227 3,800 -769 Descending FAA TRACON SMA TRACON (SMA)
Sun 06:16:43 PM 42.3731 -83.2881 181° South 181 208 3,500 -900 Descending FAA TRACON SMA TRACON (SMA)
Sun 06:17:03 PM 42.3553 -83.2886 181° South 167 192 3,200 -600 Descending FAA TRACON SMA TRACON (SMA)
Sun 06:17:23 PM 42.3394 -83.2892 181° South 164 189 3,100 -300 Descending FAA TRACON SMA TRACON (SMA)
Sun 06:17:43 PM 42.3258 -83.2925 190° South 171 197 3,000 -600 Descending FAA TRACON SMA TRACON (SMA)
Sun 06:18:03 PM 42.3100 -83.3042 209° Southwest 177 204 2,700 -1,050 Descending FAA TRACON SMA TRACON (SMA)
Sun 06:18:23 PM 42.2978 -83.3128 208° Southwest 162 186 2,300 -1,200 Descending FAA TRACON SMA TRACON (SMA)

Login

Don't have an account? Register now (free) for customized features, flight alerts, and more!